createdAt,value
2023-05-24T00:00:56.265Z,38.88
2023-05-24T00:03:26.515Z,38.55
2023-05-24T00:06:13.555Z,38.71
2023-05-24T00:08:43.688Z,38.89
2023-05-24T00:11:13.831Z,38.52
2023-05-24T00:13:44.032Z,38.88
2023-05-24T00:16:14.529Z,38.82
2023-05-24T00:18:47.094Z,38.77
2023-05-24T00:21:17.364Z,38.65
2023-05-24T00:23:47.737Z,38.76
2023-05-24T00:26:18.208Z,39.19
2023-05-24T00:32:47.207Z,39.02
2023-05-24T00:35:17.491Z,39.06
2023-05-24T00:37:48.389Z,38.85
2023-05-24T00:40:18.571Z,38.79
2023-05-24T00:42:48.790Z,38.91
2023-05-24T00:45:19.236Z,39.04
2023-05-24T00:47:49.534Z,38.65
2023-05-24T00:50:20.848Z,38.92
2023-05-24T00:52:52.020Z,38.62
2023-05-24T00:55:22.181Z,38.58
2023-05-24T00:57:53.244Z,38.73
2023-05-24T01:00:24.124Z,38.68
2023-05-24T01:02:55.327Z,38.96
2023-05-24T01:05:25.651Z,38.98
2023-05-24T01:08:11.911Z,39.57
2023-05-24T01:10:55.227Z,39.18
2023-05-24T01:13:33.865Z,39.46
2023-05-24T01:16:20.126Z,39.52
2023-05-24T01:18:57.172Z,39.03
2023-05-24T01:21:56.488Z,39.50
2023-05-24T01:25:00.035Z,39.93
2023-05-24T01:27:33.594Z,38.78
2023-05-24T01:30:04.889Z,38.96
2023-05-24T01:32:35.204Z,39.13
2023-05-24T01:35:06.326Z,39.04
2023-05-24T01:37:36.553Z,39.16
2023-05-24T01:40:07.827Z,38.93
2023-05-24T01:42:46.709Z,39.45
2023-05-24T01:45:35.713Z,39.95
2023-05-24T01:48:28.414Z,39.73
2023-05-24T01:51:00.404Z,39.28
2023-05-24T01:53:34.686Z,39.53
2023-05-24T01:56:06.491Z,39.50
2023-05-24T01:58:37.919Z,39.12
2023-05-24T02:01:09.269Z,39.25
2023-05-24T02:03:39.985Z,39.54
2023-05-24T02:06:10.999Z,39.53
2023-05-24T02:08:41.312Z,39.36
2023-05-24T02:11:11.497Z,39.64
2023-05-24T02:13:41.561Z,39.69
2023-05-24T02:16:11.777Z,40.11
2023-05-24T02:18:44.980Z,39.70
2023-05-24T02:21:15.211Z,39.76
2023-05-24T02:23:45.406Z,39.93
2023-05-24T02:26:17.867Z,40.06
2023-05-24T02:28:48.513Z,39.79
2023-05-24T02:31:18.822Z,40.03
2023-05-24T02:33:49.013Z,39.81
2023-05-24T02:36:19.117Z,40.40
2023-05-24T02:38:50.252Z,40.13
2023-05-24T02:41:20.621Z,40.24
2023-05-24T02:43:50.989Z,40.52
2023-05-24T02:46:21.379Z,40.64
2023-05-24T02:48:51.602Z,40.79
2023-05-24T02:51:21.868Z,40.75
2023-05-24T02:53:52.663Z,40.74
2023-05-24T02:56:23.125Z,40.74
2023-05-24T02:58:54.438Z,40.58
2023-05-24T03:01:24.701Z,40.78
2023-05-24T03:03:55.091Z,40.85
2023-05-24T03:06:25.361Z,40.71
2023-05-24T03:08:55.603Z,40.85
2023-05-24T03:11:26.393Z,41.05
2023-05-24T03:13:56.584Z,40.94
2023-05-24T03:16:26.728Z,41.09
2023-05-24T03:18:56.929Z,40.80
2023-05-24T03:21:27.487Z,40.94
2023-05-24T03:23:58.001Z,41.19
2023-05-24T03:26:28.238Z,41.02
2023-05-24T03:28:58.400Z,41.36
2023-05-24T03:31:28.828Z,41.59
2023-05-24T03:33:59.023Z,41.22
2023-05-24T03:36:29.342Z,41.57
2023-05-24T03:38:59.517Z,41.65
2023-05-24T03:41:29.665Z,41.49
2023-05-24T03:44:00.504Z,41.40
2023-05-24T03:46:30.748Z,41.88
2023-05-24T03:49:01.227Z,41.89
2023-05-24T03:51:31.384Z,41.90
2023-05-24T03:54:01.641Z,41.57
2023-05-24T03:56:31.811Z,41.69
2023-05-24T03:59:04.112Z,41.96
2023-05-24T04:01:36.815Z,42.20
2023-05-24T04:04:07.014Z,41.78
2023-05-24T04:06:38.411Z,41.56
2023-05-24T04:09:10.225Z,41.46
2023-05-24T04:11:40.497Z,41.48
2023-05-24T04:14:10.999Z,41.57
2023-05-24T04:16:41.878Z,41.27
2023-05-24T04:19:12.104Z,41.29
2023-05-24T04:21:42.377Z,41.58
2023-05-24T04:24:12.577Z,41.46
2023-05-24T04:26:42.754Z,41.80
2023-05-24T04:29:13.240Z,41.42
2023-05-24T04:31:46.266Z,41.75
2023-05-24T04:34:16.491Z,41.73
2023-05-24T04:36:47.791Z,41.64
2023-05-24T04:39:19.018Z,41.39
2023-05-24T04:41:53.421Z,40.97
2023-05-24T04:44:24.473Z,41.00
2023-05-24T04:46:54.803Z,40.98
2023-05-24T04:49:24.936Z,41.00
2023-05-24T04:51:55.363Z,40.96
2023-05-24T04:54:25.708Z,41.03
2023-05-24T04:56:55.995Z,41.14
2023-05-24T04:59:26.225Z,41.03
2023-05-24T05:01:56.538Z,41.30
2023-05-24T05:04:26.730Z,41.11
2023-05-24T05:06:57.674Z,40.86
2023-05-24T05:09:28.511Z,40.82
2023-05-24T05:11:58.771Z,41.16
2023-05-24T05:14:29.401Z,40.75
2023-05-24T05:16:59.541Z,40.66
2023-05-24T05:19:29.783Z,40.84
2023-05-24T05:21:59.924Z,40.68
2023-05-24T05:24:30.212Z,40.18
2023-05-24T05:27:00.922Z,40.27
2023-05-24T05:29:31.147Z,40.02
2023-05-24T05:32:01.429Z,39.96
2023-05-24T05:34:31.612Z,39.57
2023-05-24T05:37:01.996Z,39.49
2023-05-24T05:39:32.179Z,39.72
2023-05-24T05:42:02.644Z,39.59
2023-05-24T05:44:32.838Z,39.45
2023-05-24T05:47:04.141Z,39.50
2023-05-24T05:49:36.764Z,39.26
2023-05-24T05:52:07.286Z,39.09
2023-05-24T05:54:37.384Z,39.08
2023-05-24T05:57:10.742Z,39.04
2023-05-24T05:59:41.234Z,38.91
2023-05-24T06:02:13.130Z,38.53
2023-05-24T06:04:43.463Z,38.70
2023-05-24T06:07:13.729Z,38.34
2023-05-24T06:09:43.914Z,38.11
2023-05-24T06:12:14.249Z,37.94
2023-05-24T06:14:45.407Z,37.08
2023-05-24T06:17:17.222Z,36.96
2023-05-24T06:19:47.501Z,36.79
2023-05-24T06:22:18.137Z,36.70
2023-05-24T06:24:49.419Z,36.89
2023-05-24T06:27:20.026Z,36.63
2023-05-24T06:29:50.181Z,36.65
2023-05-24T06:32:20.663Z,36.63
2023-05-24T06:34:50.844Z,36.60
2023-05-24T06:37:25.807Z,36.80
2023-05-24T06:39:56.724Z,36.58
2023-05-24T06:42:27.012Z,36.11
2023-05-24T06:44:57.242Z,35.98
2023-05-24T06:47:27.654Z,37.04
2023-05-24T06:49:58.085Z,38.75
2023-05-24T06:52:28.995Z,38.71
2023-05-24T06:54:59.419Z,39.07
2023-05-24T06:57:29.546Z,39.37
2023-05-24T06:59:59.673Z,38.75
2023-05-24T07:02:29.862Z,38.55
2023-05-24T07:05:00.188Z,38.96
2023-05-24T07:07:30.408Z,38.84
2023-05-24T07:10:00.682Z,39.01
2023-05-24T07:12:32.713Z,38.49
2023-05-24T07:15:03.719Z,38.61
2023-05-24T07:17:34.028Z,38.72
2023-05-24T07:20:10.616Z,38.09
2023-05-24T07:22:44.550Z,37.73
2023-05-24T07:25:14.909Z,37.92
2023-05-24T07:27:49.321Z,37.73
2023-05-24T07:30:31.015Z,37.20
2023-05-24T07:33:03.480Z,37.04
2023-05-24T07:35:33.791Z,36.19
2023-05-24T07:38:03.931Z,36.10
2023-05-24T07:40:34.327Z,35.77
2023-05-24T07:43:04.523Z,35.80
2023-05-24T07:45:34.790Z,35.94
2023-05-24T07:48:05.023Z,36.28
2023-05-24T07:50:35.229Z,36.80
2023-05-24T07:53:05.675Z,36.71
2023-05-24T07:55:35.942Z,37.86
2023-05-24T07:58:06.707Z,37.09
2023-05-24T08:00:36.945Z,37.90
2023-05-24T08:03:07.826Z,38.24
2023-05-24T08:05:38.032Z,37.77
2023-05-24T08:08:08.610Z,38.03
2023-05-24T08:10:38.752Z,38.16
2023-05-24T08:13:08.927Z,37.59
2023-05-24T08:15:39.024Z,36.37
2023-05-24T08:18:09.717Z,37.17
2023-05-24T08:20:41.093Z,37.54
2023-05-24T08:23:11.497Z,36.42
2023-05-24T08:25:43.049Z,36.08
2023-05-24T08:28:13.497Z,35.64
2023-05-24T08:30:44.757Z,36.95
2023-05-24T08:33:15.095Z,37.81
2023-05-24T08:35:45.324Z,37.75
2023-05-24T08:38:15.511Z,38.02
2023-05-24T08:40:46.198Z,38.00
2023-05-24T08:43:17.215Z,38.15
2023-05-24T08:45:50.139Z,38.37
2023-05-24T08:48:21.110Z,37.43
2023-05-24T08:50:52.104Z,37.43
2023-05-24T08:53:23.849Z,37.24
2023-05-24T08:55:56.013Z,38.33
2023-05-24T08:58:26.554Z,35.72
2023-05-24T09:00:56.880Z,34.83
2023-05-24T09:03:27.349Z,34.80
2023-05-24T09:05:58.668Z,33.58
2023-05-24T09:08:29.426Z,33.00
2023-05-24T09:11:00.558Z,33.10
2023-05-24T09:13:32.042Z,33.17
2023-05-24T09:16:02.899Z,33.00
2023-05-24T09:18:33.122Z,32.95
2023-05-24T09:21:06.279Z,32.77
2023-05-24T09:23:37.305Z,32.06
2023-05-24T09:26:09.869Z,32.53
2023-05-24T09:28:41.973Z,31.94
2023-05-24T09:31:13.966Z,32.20
2023-05-24T09:33:44.258Z,32.20
2023-05-24T09:36:17.564Z,31.67
2023-05-24T09:38:48.657Z,31.81
2023-05-24T09:41:20.728Z,31.64
2023-05-24T09:43:51.171Z,31.35
2023-05-24T09:46:22.035Z,30.81
2023-05-24T09:48:59.359Z,30.60
2023-05-24T09:51:30.319Z,30.68
2023-05-24T09:54:03.617Z,30.50
2023-05-24T09:56:34.999Z,31.06
2023-05-24T09:59:08.820Z,30.56
2023-05-24T10:01:39.176Z,30.40
2023-05-24T10:04:10.502Z,30.23
2023-05-24T10:06:43.251Z,29.60
2023-05-24T10:09:14.838Z,30.44
2023-05-24T10:11:46.077Z,30.78
2023-05-24T10:14:18.305Z,30.88
2023-05-24T10:16:48.507Z,31.09
2023-05-24T10:19:18.965Z,30.26
2023-05-24T10:21:49.902Z,30.10
2023-05-24T10:24:24.794Z,30.64
2023-05-24T10:26:57.545Z,30.21
2023-05-24T10:29:36.731Z,30.08
2023-05-24T10:32:07.007Z,30.03
2023-05-24T10:34:38.677Z,29.85
2023-05-24T10:37:09.820Z,28.41
2023-05-24T10:39:41.898Z,28.47
2023-05-24T10:42:13.676Z,28.65
2023-05-24T10:44:44.991Z,28.61
2023-05-24T10:47:17.238Z,27.63
2023-05-24T10:50:05.240Z,26.77
2023-05-24T10:52:36.692Z,28.16
2023-05-24T10:55:10.330Z,28.32
2023-05-24T10:57:40.757Z,28.24
2023-05-24T11:03:04.373Z,27.50
2023-05-24T11:05:48.058Z,28.17
2023-05-24T11:08:33.686Z,26.84
2023-05-24T11:11:26.510Z,27.38
2023-05-24T11:14:00.677Z,27.57
2023-05-24T11:16:39.487Z,27.71
2023-05-24T11:19:17.931Z,28.09
2023-05-24T11:21:54.019Z,27.35
2023-05-24T11:24:25.644Z,27.54
2023-05-24T11:26:57.281Z,27.46
2023-05-24T11:29:28.165Z,27.06
2023-05-24T11:32:05.285Z,27.41
2023-05-24T11:34:35.723Z,27.13
2023-05-24T11:37:06.570Z,27.03
2023-05-24T11:39:37.777Z,27.17
2023-05-24T11:42:09.070Z,27.20
2023-05-24T11:44:39.356Z,27.03
2023-05-24T11:47:09.659Z,26.66
2023-05-24T11:49:39.775Z,26.74
2023-05-24T11:52:09.930Z,26.15
2023-05-24T11:54:40.182Z,26.33
2023-05-24T11:57:14.366Z,25.81
2023-05-24T11:59:44.615Z,26.67
2023-05-24T12:02:14.820Z,26.57
2023-05-24T12:04:46.439Z,26.79
2023-05-24T12:07:17.992Z,25.63
2023-05-24T12:09:48.220Z,25.96
2023-05-24T12:12:20.895Z,25.96
2023-05-24T12:14:56.230Z,25.50
2023-05-24T12:17:26.595Z,25.51
2023-05-24T12:19:56.985Z,25.63
2023-05-24T12:22:32.058Z,26.07
2023-05-24T12:25:03.981Z,25.81
2023-05-24T12:27:35.017Z,25.88
2023-05-24T12:30:10.270Z,25.34
2023-05-24T12:32:40.471Z,25.99
2023-05-24T12:35:11.757Z,25.81
2023-05-24T12:37:42.094Z,26.20
2023-05-24T12:40:20.941Z,25.96
2023-05-24T12:42:53.609Z,25.98
2023-05-24T12:45:26.314Z,26.32
2023-05-24T12:47:58.749Z,26.29
2023-05-24T12:50:29.173Z,26.22
2023-05-24T12:52:59.326Z,25.73
2023-05-24T12:55:30.109Z,26.00
2023-05-24T12:58:02.693Z,26.63
2023-05-24T13:00:32.897Z,27.04
2023-05-24T13:03:03.157Z,27.04
2023-05-24T13:05:33.329Z,26.32
2023-05-24T13:08:04.239Z,27.14
2023-05-24T13:10:34.398Z,27.40
2023-05-24T13:13:05.371Z,27.51
2023-05-24T13:15:36.115Z,27.59
2023-05-24T13:18:06.570Z,27.36
2023-05-24T13:20:36.833Z,27.81
2023-05-24T13:23:07.355Z,28.03
2023-05-24T13:25:37.710Z,28.76
2023-05-24T13:28:08.030Z,28.20
2023-05-24T13:30:38.871Z,26.27
2023-05-24T13:33:09.259Z,25.55
2023-05-24T13:35:40.044Z,25.89
2023-05-24T13:38:10.637Z,26.63
2023-05-24T13:40:41.843Z,27.40
2023-05-24T13:43:12.316Z,27.56
2023-05-24T13:45:42.965Z,28.05
2023-05-24T13:48:13.436Z,28.64
2023-05-24T13:50:45.045Z,28.41
2023-05-24T13:53:15.597Z,29.59
2023-05-24T13:55:45.765Z,30.26
2023-05-24T13:58:16.805Z,30.91
2023-05-24T14:00:47.330Z,31.31
2023-05-24T14:03:17.784Z,31.87
2023-05-24T14:05:48.223Z,32.01
2023-05-24T14:08:18.394Z,32.37
2023-05-24T14:10:50.193Z,32.42
2023-05-24T14:13:58.882Z,32.66
2023-05-24T14:16:10.765Z,32.82
2023-05-24T14:18:41.247Z,32.19
2023-05-24T14:21:11.820Z,31.56
2023-05-24T14:23:42.321Z,31.29
2023-05-24T14:26:12.595Z,31.25
2023-05-24T14:28:42.810Z,31.56
2023-05-24T14:31:13.101Z,31.82
2023-05-24T14:33:43.327Z,31.77
2023-05-24T14:36:13.528Z,31.67
2023-05-24T14:38:43.748Z,32.16
2023-05-24T14:41:14.015Z,31.61
2023-05-24T14:43:44.214Z,31.45
2023-05-24T14:46:14.509Z,31.88
2023-05-24T14:48:44.669Z,32.56
2023-05-24T14:51:14.813Z,32.99
2023-05-24T14:53:45.694Z,33.52
2023-05-24T14:56:16.171Z,33.28
2023-05-24T14:58:46.323Z,34.13
2023-05-24T15:01:16.617Z,33.87
2023-05-24T15:03:46.861Z,34.09
2023-05-24T15:06:17.867Z,34.29
2023-05-24T15:08:48.025Z,34.26
2023-05-24T15:11:19.584Z,34.75
2023-05-24T15:13:49.743Z,35.29
2023-05-24T15:16:19.956Z,35.51
2023-05-24T15:18:50.190Z,35.62
2023-05-24T15:21:21.173Z,35.97
2023-05-24T15:23:51.312Z,35.88
2023-05-24T15:26:21.584Z,35.98
2023-05-24T15:28:51.870Z,36.03
2023-05-24T15:31:22.449Z,36.39
2023-05-24T15:33:52.745Z,36.29
2023-05-24T15:36:22.988Z,36.87
2023-05-24T15:38:53.138Z,36.79
2023-05-24T15:41:23.339Z,36.49
2023-05-24T15:43:56.204Z,36.44
2023-05-24T15:46:27.141Z,36.78
2023-05-24T15:48:57.289Z,36.45
2023-05-24T15:54:00.593Z,35.83
2023-05-24T15:56:30.760Z,35.52
2023-05-24T15:59:01.055Z,35.71
2023-05-24T16:01:31.287Z,35.50
2023-05-24T16:04:01.603Z,35.52
2023-05-24T16:06:31.951Z,35.84
2023-05-24T16:09:02.352Z,35.99
2023-05-24T16:11:32.562Z,36.13
2023-05-24T16:14:03.888Z,36.01
2023-05-24T16:16:34.139Z,36.08
2023-05-24T16:19:04.372Z,36.20
2023-05-24T16:21:34.682Z,36.36
2023-05-24T16:24:05.693Z,36.57
2023-05-24T16:26:35.978Z,36.61
2023-05-24T16:29:07.237Z,37.19
2023-05-24T16:31:37.956Z,37.37
2023-05-24T16:34:08.126Z,37.56
2023-05-24T16:36:38.489Z,37.72
2023-05-24T16:39:08.620Z,38.15
2023-05-24T16:41:40.535Z,38.15
2023-05-24T16:44:11.559Z,38.73
2023-05-24T16:46:41.890Z,39.31
2023-05-24T16:49:12.553Z,39.79
2023-05-24T16:51:42.713Z,40.36
2023-05-24T16:54:13.057Z,40.49
2023-05-24T16:56:43.249Z,40.99
2023-05-24T16:59:13.531Z,41.34
2023-05-24T17:01:45.492Z,41.83
2023-05-24T17:04:15.666Z,42.21
2023-05-24T17:06:46.042Z,42.18
2023-05-24T17:09:16.281Z,42.20
2023-05-24T17:11:46.891Z,42.74
2023-05-24T17:14:18.126Z,43.20
2023-05-24T17:16:48.393Z,43.36
2023-05-24T17:19:19.641Z,43.97
2023-05-24T17:21:49.865Z,44.63
2023-05-24T17:24:21.844Z,44.65
2023-05-24T17:26:52.884Z,45.00
2023-05-24T17:29:28.814Z,44.89
2023-05-24T17:32:00.031Z,44.74
2023-05-24T17:34:31.044Z,45.14
2023-05-24T17:37:02.014Z,45.95
2023-05-24T17:39:32.211Z,46.03
2023-05-24T17:42:04.583Z,46.28
2023-05-24T17:44:35.462Z,46.35
2023-05-24T17:47:06.097Z,46.19
2023-05-24T17:49:36.281Z,46.22
2023-05-24T17:52:06.771Z,46.36
2023-05-24T17:54:41.707Z,46.60
2023-05-24T17:57:12.287Z,46.56
2023-05-24T17:59:44.163Z,47.03
2023-05-24T18:02:15.157Z,47.14
2023-05-24T18:04:45.819Z,47.15
2023-05-24T18:07:16.047Z,46.94
2023-05-24T18:09:46.448Z,47.02
2023-05-24T18:12:17.665Z,47.33
2023-05-24T18:14:48.341Z,47.27
2023-05-24T18:17:18.822Z,47.34
2023-05-24T18:19:49.033Z,47.44
2023-05-24T18:22:21.326Z,47.56
2023-05-24T18:24:51.530Z,47.46
2023-05-24T18:27:22.130Z,47.73
2023-05-24T18:29:52.430Z,47.85
2023-05-24T18:32:22.724Z,48.14
2023-05-24T18:34:53.062Z,47.84
2023-05-24T18:37:23.402Z,48.56
2023-05-24T18:39:53.715Z,48.13
2023-05-24T18:42:23.895Z,48.23
2023-05-24T18:44:54.053Z,48.38
2023-05-24T18:47:24.228Z,48.36
2023-05-24T18:49:54.384Z,48.51
2023-05-24T18:52:24.633Z,49.03
2023-05-24T18:54:58.896Z,49.22
2023-05-24T18:57:31.487Z,49.23
2023-05-24T19:00:01.892Z,49.47
2023-05-24T19:02:32.170Z,49.38
2023-05-24T19:05:02.494Z,49.60
2023-05-24T19:07:32.928Z,49.83
2023-05-24T19:10:04.549Z,49.71
2023-05-24T19:12:35.651Z,50.02
2023-05-24T19:15:06.980Z,49.84
2023-05-24T19:17:37.714Z,49.51
2023-05-24T19:20:08.503Z,49.76
2023-05-24T19:22:39.266Z,50.00
2023-05-24T19:25:10.156Z,50.07
2023-05-24T19:27:54.858Z,50.11
2023-05-24T19:30:29.524Z,50.24
2023-05-24T19:33:00.091Z,50.49
2023-05-24T19:35:30.494Z,50.42
2023-05-24T19:38:01.355Z,50.70
2023-05-24T19:40:31.515Z,50.42
2023-05-24T19:43:01.743Z,50.39
2023-05-24T19:45:31.914Z,50.47
2023-05-24T19:48:02.184Z,50.32
2023-05-24T19:50:32.496Z,50.42
2023-05-24T19:53:02.684Z,50.59
2023-05-24T19:55:32.907Z,50.61
2023-05-24T19:58:03.088Z,50.69
2023-05-24T20:00:34.071Z,50.87
2023-05-24T20:03:04.324Z,50.42
2023-05-24T20:05:34.587Z,50.22
2023-05-24T20:08:04.855Z,50.30
2023-05-24T20:10:36.617Z,50.21
2023-05-24T20:13:06.851Z,50.14
2023-05-24T20:15:37.007Z,50.19
2023-05-24T20:18:07.357Z,50.14
2023-05-24T20:20:37.981Z,50.15
2023-05-24T20:23:08.237Z,50.24
2023-05-24T20:25:38.428Z,50.54
2023-05-24T20:28:15.432Z,50.49
2023-05-24T20:30:52.515Z,50.80
2023-05-24T20:33:22.711Z,50.84
2023-05-24T20:35:54.191Z,51.25
2023-05-24T20:38:24.657Z,50.98
2023-05-24T20:40:54.868Z,51.29
2023-05-24T20:43:25.086Z,51.36
2023-05-24T20:45:55.435Z,51.60
2023-05-24T20:48:25.760Z,51.17
2023-05-24T20:50:56.136Z,51.28
2023-05-24T20:53:26.305Z,50.97
2023-05-24T20:55:57.401Z,51.03
2023-05-24T20:58:30.241Z,51.00
2023-05-24T21:01:00.716Z,50.74
2023-05-24T21:03:31.116Z,50.45
2023-05-24T21:06:01.368Z,50.61
2023-05-24T21:08:31.532Z,50.70
2023-05-24T21:11:01.768Z,50.62
2023-05-24T21:13:32.077Z,50.69
2023-05-24T21:16:03.225Z,50.52
2023-05-24T21:18:33.695Z,50.29
2023-05-24T21:21:05.605Z,50.45
2023-05-24T21:23:35.888Z,50.47
2023-05-24T21:26:06.168Z,50.56
2023-05-24T21:28:36.624Z,50.97
2023-05-24T21:31:07.364Z,50.87
2023-05-24T21:33:39.795Z,50.92
2023-05-24T21:36:10.535Z,51.10
2023-05-24T21:38:40.717Z,51.17
2023-05-24T21:41:11.250Z,51.44
2023-05-24T21:43:42.001Z,51.35
2023-05-24T21:46:12.188Z,51.42
2023-05-24T21:48:42.886Z,51.42
2023-05-24T21:51:15.803Z,51.61
2023-05-24T21:53:46.427Z,51.46
2023-05-24T21:56:16.741Z,50.94
2023-05-24T21:58:46.928Z,51.30
2023-05-24T22:01:17.146Z,51.29
2023-05-24T22:03:47.413Z,50.92
2023-05-24T22:06:17.731Z,51.05
2023-05-24T22:08:47.857Z,51.08
2023-05-24T22:11:18.113Z,51.07
2023-05-24T22:13:48.301Z,50.82
2023-05-24T22:16:18.444Z,50.84
2023-05-24T22:18:50.768Z,50.65
2023-05-24T22:21:22.879Z,50.51
2023-05-24T22:23:53.270Z,50.57
2023-05-24T22:26:24.498Z,50.46
2023-05-24T22:29:00.945Z,50.39
2023-05-24T22:31:33.557Z,50.23
2023-05-24T22:34:03.983Z,50.29
2023-05-24T22:36:35.298Z,50.31
2023-05-24T22:39:05.872Z,50.17
2023-05-24T22:41:36.132Z,50.34
2023-05-24T22:44:06.325Z,50.26
2023-05-24T22:46:38.059Z,50.21
2023-05-24T22:49:08.330Z,50.06
2023-05-24T22:51:39.002Z,50.10
2023-05-24T22:54:09.220Z,50.13
2023-05-24T22:56:39.497Z,50.30
2023-05-24T22:59:11.042Z,50.37
2023-05-24T23:01:41.318Z,50.72
2023-05-24T23:04:20.992Z,50.82
2023-05-24T23:06:53.489Z,50.68
2023-05-24T23:09:29.460Z,50.82
2023-05-24T23:12:08.028Z,50.74
2023-05-24T23:14:40.000Z,50.91
2023-05-24T23:17:14.636Z,50.98
2023-05-24T23:19:44.904Z,51.24
2023-05-24T23:22:24.050Z,51.35
2023-05-24T23:24:54.351Z,51.36
2023-05-24T23:27:24.575Z,51.49
2023-05-24T23:29:54.833Z,51.73
2023-05-24T23:32:25.060Z,51.86
2023-05-24T23:34:55.186Z,52.03
2023-05-24T23:37:25.674Z,52.06
2023-05-24T23:40:56.686Z,53.47
2023-05-24T23:43:26.797Z,52.14
2023-05-24T23:45:57.061Z,52.19
2023-05-24T23:48:27.282Z,52.26
2023-05-24T23:50:57.452Z,52.35
2023-05-24T23:53:27.609Z,52.51
2023-05-24T23:55:57.888Z,52.53
2023-05-24T23:58:28.094Z,52.48
